Time;durP1;ratioP1;P1;durP2;ratioP2;P2;SDS_P1;SDS_P2;PMS_P1;PMS_P2;Temp;Humidity;BMP_temperature;BMP_pressure;BME280_temperature;BME280_humidity;BME280_pressure;Samples;Min_cycle;Max_cycle;Signal;HPM_P1;HPM_P2
2021/03/24 00:00:48;;;;;;;10.02;7.70;;;;;;;3.51;59.39;93372.69;4990955;28;20033;-85
2021/03/24 00:03:15;;;;;;;16.30;10.00;;;;;;;3.53;59.56;93370.59;4967066;28;20571;-83
2021/03/24 00:05:51;;;;;;;12.95;9.18;;;;;;;3.64;59.72;93364.38;4975818;28;20045;-86
2021/03/24 00:08:25;;;;;;;44.85;23.60;;;;;;;3.54;58.95;93335.59;4969260;28;20096;-82
2021/03/24 00:10:51;;;;;;;37.30;20.75;;;;;;;3.55;58.96;93324.13;4938021;28;20053;-84
2021/03/24 00:13:23;;;;;;;26.58;16.30;;;;;;;3.60;59.13;93347.66;4924678;28;20338;-85
2021/03/24 00:15:55;;;;;;;30.02;16.55;;;;;;;3.52;59.31;93335.06;4968850;28;20496;-82
2021/03/24 00:18:20;;;;;;;34.38;20.98;;;;;;;3.43;59.83;93331.38;4970458;28;20046;-85
2021/03/24 00:20:46;;;;;;;21.83;12.07;;;;;;;3.58;59.43;93354.94;4971255;28;20358;-83
2021/03/24 00:23:15;;;;;;;21.00;11.90;;;;;;;3.41;59.41;93338.69;4971561;28;20030;-84
2021/03/24 00:25:48;;;;;;;13.60;10.30;;;;;;;3.49;60.24;93346.03;4963577;28;20603;-85
2021/03/24 00:28:15;;;;;;;23.23;12.75;;;;;;;3.44;60.37;93353.84;4969623;28;20038;-84
2021/03/24 00:30:45;;;;;;;17.73;9.07;;;;;;;3.36;60.57;93323.00;4971303;28;20181;-84
2021/03/24 00:33:17;;;;;;;9.65;8.13;;;;;;;3.55;60.70;93355.47;4968808;28;20038;-85
2021/03/24 00:35:43;;;;;;;17.60;11.23;;;;;;;3.49;60.75;93340.81;4972029;28;20830;-84
2021/03/24 00:38:10;;;;;;;16.52;11.60;;;;;;;3.39;60.49;93346.00;4970703;28;20034;-85
2021/03/24 00:40:40;;;;;;;14.57;10.73;;;;;;;3.43;61.01;93352.28;4966834;28;20046;-84
2021/03/24 00:43:09;;;;;;;14.02;9.82;;;;;;;3.24;61.98;93331.03;4969173;28;20485;-84
2021/03/24 00:45:36;;;;;;;10.82;8.82;;;;;;;3.34;62.28;93343.34;4967361;28;20077;-85
2021/03/24 00:48:09;;;;;;;8.70;7.18;;;;;;;3.46;62.29;93357.78;4969557;28;20439;-84
2021/03/24 00:50:35;;;;;;;12.68;8.32;;;;;;;3.40;62.58;93353.59;4968647;28;20022;-83
2021/03/24 00:53:04;;;;;;;11.93;8.85;;;;;;;3.42;64.28;93366.41;4969587;28;20163;-82
2021/03/24 00:55:32;;;;;;;12.00;9.60;;;;;;;3.25;67.68;93356.13;4981975;28;20540;-82
2021/03/24 00:57:57;;;;;;;13.07;9.93;;;;;;;3.20;68.04;93342.25;4968399;28;20046;-83
2021/03/24 01:00:31;;;;;;;14.35;10.20;;;;;;;3.04;71.71;93359.66;4967101;28;20456;-82
2021/03/24 01:02:57;;;;;;;16.52;11.80;;;;;;;3.05;73.63;93358.63;4977834;28;21253;-84
2021/03/24 01:05:26;;;;;;;16.15;12.25;;;;;;;3.01;73.71;93344.50;4977608;28;20187;-84
2021/03/24 01:08:22;;;;;;;18.95;12.50;;;;;;;3.08;73.60;93354.72;4989956;28;20042;-84
2021/03/24 01:10:48;;;;;;;20.42;12.90;;;;;;;3.02;72.57;93344.25;4964061;28;20601;-82
2021/03/24 01:13:19;;;;;;;17.77;11.70;;;;;;;3.08;71.45;93342.44;4969982;28;20169;-84
2021/03/24 01:15:45;;;;;;;15.82;11.48;;;;;;;2.95;69.38;93320.19;4990772;28;20034;-85
2021/03/24 01:18:10;;;;;;;16.33;12.52;;;;;;;2.92;69.57;93323.31;4977848;28;20046;-82
2021/03/24 01:20:38;;;;;;;15.23;11.18;;;;;;;2.98;68.92;93322.28;4993335;28;20026;-83
2021/03/24 01:23:04;;;;;;;13.77;11.07;;;;;;;2.99;68.64;93326.47;4987194;28;20030;-83
2021/03/24 01:25:32;;;;;;;16.90;12.88;;;;;;;2.74;68.00;93287.19;4990300;28;20085;-85
2021/03/24 01:28:01;;;;;;;14.85;12.18;;;;;;;2.77;68.00;93280.69;4987653;28;20046;-83
2021/03/24 01:30:30;;;;;;;14.15;11.63;;;;;;;2.88;67.15;93283.09;4991837;28;20043;-83
2021/03/24 01:32:56;;;;;;;17.27;11.27;;;;;;;2.84;66.55;93302.91;4986784;28;20084;-81
2021/03/24 01:35:28;;;;;;;15.70;12.40;;;;;;;2.92;66.84;93305.06;4993081;28;20080;-84
2021/03/24 01:37:56;;;;;;;15.70;12.20;;;;;;;2.66;66.55;93269.41;4973066;28;20057;-83
2021/03/24 01:40:31;;;;;;;17.08;12.55;;;;;;;2.80;66.20;93286.19;4989156;28;20052;-85
2021/03/24 01:42:58;;;;;;;;;;;;;;;2.89;66.36;93300.31;4991229;28;20038;-83
2021/03/24 01:45:24;;;;;;;16.88;13.68;;;;;;;2.86;66.64;93300.84;4975317;28;19917;-85
2021/03/24 01:47:54;;;;;;;20.08;13.45;;;;;;;2.64;67.14;93258.44;4991398;28;20423;-85
2021/03/24 01:50:28;;;;;;;19.75;13.80;;;;;;;2.91;66.96;93295.66;4995240;28;20017;-84
2021/03/24 01:52:53;;;;;;;20.50;14.17;;;;;;;2.92;67.34;93283.38;4973885;28;20487;-84
2021/03/24 01:55:19;;;;;;;19.90;14.43;;;;;;;2.89;68.33;93274.22;4975570;28;20037;-83
2021/03/24 01:57:45;;;;;;;19.77;14.75;;;;;;;2.94;69.96;93292.53;4994350;28;20042;-85
2021/03/24 02:00:42;;;;;;;18.38;15.45;;;;;;;2.94;70.66;93287.31;4988573;28;20523;-84
2021/03/24 02:03:10;;;;;;;24.13;16.45;;;;;;;2.77;71.01;93271.06;4970005;28;20474;-84
2021/03/24 02:05:36;;;;;;;22.45;15.38;;;;;;;2.74;70.33;93281.97;4969366;28;20092;-83
2021/03/24 02:08:16;;;;;;;20.40;15.55;;;;;;;2.68;70.11;93279.59;4974819;28;20038;-84
2021/03/24 02:11:11;;;;;;;18.88;14.15;;;;;;;2.68;69.92;93277.78;4963226;28;20047;-83
2021/03/24 02:13:55;;;;;;;28.58;16.42;;;;;;;2.77;69.37;93291.91;4973429;28;20034;-83
2021/03/24 02:16:25;;;;;;;27.60;17.35;;;;;;;2.80;68.96;93286.19;4969227;28;20421;-83
2021/03/24 02:18:53;;;;;;;19.50;14.60;;;;;;;2.71;68.33;93260.81;4976091;28;20049;-85
2021/03/24 02:21:27;;;;;;;21.45;15.35;;;;;;;2.77;68.45;93265.03;4971700;28;20046;-83
2021/03/24 02:24:03;;;;;;;19.95;14.52;;;;;;;2.85;67.91;93280.22;4972758;28;20452;-84
2021/03/24 02:27:06;;;;;;;20.10;13.45;;;;;;;2.75;67.92;93293.97;4975571;28;20428;-85
2021/03/24 02:29:34;;;;;;;19.40;14.52;;;;;;;2.75;68.13;93267.91;4899209;29;20230;-83
2021/03/24 02:32:04;;;;;;;20.98;15.52;;;;;;;2.89;68.66;93287.28;4911130;28;20082;-83
2021/03/24 02:34:31;;;;;;;20.30;16.00;;;;;;;2.96;67.99;93274.78;4917091;28;20044;-84
2021/03/24 02:36:59;;;;;;;21.38;15.35;;;;;;;2.93;68.15;93269.31;4903604;28;20043;-86
2021/03/24 02:39:31;;;;;;;23.92;17.48;;;;;;;2.96;68.80;93280.00;4914992;28;20055;-83
2021/03/24 02:42:03;;;;;;;25.42;19.88;;;;;;;2.85;70.06;93262.72;4913982;28;20038;-81
2021/03/24 02:44:28;;;;;;;28.45;18.48;;;;;;;2.75;70.03;93244.41;4900705;29;20118;-84
2021/03/24 02:46:56;;;;;;;27.65;19.25;;;;;;;2.77;70.36;93263.22;4897539;29;20568;-84
2021/03/24 02:49:26;;;;;;;30.50;19.30;;;;;;;2.86;70.33;93261.69;4907946;28;20173;-82
2021/03/24 02:51:52;;;;;;;24.33;16.25;;;;;;;2.95;69.44;93267.22;4913173;28;20051;-83
2021/03/24 02:54:21;;;;;;;25.52;17.42;;;;;;;2.82;68.60;93252.81;4913677;28;20123;-84
2021/03/24 02:56:48;;;;;;;23.48;17.88;;;;;;;2.88;68.57;93251.78;4915021;28;20227;-82
2021/03/24 02:59:15;;;;;;;24.00;15.65;;;;;;;2.82;67.99;93255.41;4916449;29;20019;-83
2021/03/24 03:01:48;;;;;;;23.83;17.80;;;;;;;2.91;68.15;93261.72;4912965;28;20048;-83
2021/03/24 03:04:48;;;;;;;24.75;16.55;;;;;;;2.85;68.70;93272.38;4894043;29;20099;-83
2021/03/24 03:07:20;;;;;;;19.85;15.90;;;;;;;2.89;69.03;93271.63;4870817;29;20044;-84
2021/03/24 03:10:04;;;;;;;24.50;17.05;;;;;;;2.87;69.50;93259.88;4872131;29;20048;-82
2021/03/24 03:12:39;;;;;;;21.25;16.25;;;;;;;2.74;70.24;93258.50;4860814;29;20041;-83
2021/03/24 03:15:13;;;;;;;29.90;17.98;;;;;;;2.86;70.41;93269.53;4848433;29;20955;-83
2021/03/24 03:17:51;;;;;;;24.07;17.77;;;;;;;2.90;70.22;93275.00;4852576;29;20290;-84
2021/03/24 03:20:30;;;;;;;22.45;17.15;;;;;;;2.49;70.85;93250.53;4848035;29;20129;-84
2021/03/24 03:23:05;;;;;;;21.08;16.98;;;;;;;2.71;71.87;93277.28;4862962;29;20072;-81
2021/03/24 03:25:35;;;;;;;22.02;16.73;;;;;;;2.76;72.47;93272.09;4870709;29;20045;-83
2021/03/24 03:28:09;;;;;;;19.70;17.33;;;;;;;2.70;73.99;93285.34;4859549;29;20087;-83
2021/03/24 03:30:37;;;;;;;24.70;18.95;;;;;;;2.65;76.53;93267.84;4874810;29;20040;-84
2021/03/24 03:33:09;;;;;;;28.20;21.08;;;;;;;2.59;77.25;93284.53;4872850;29;20032;-83
2021/03/24 03:35:38;;;;;;;30.02;22.55;;;;;;;2.65;77.84;93286.09;4875408;29;20063;-83
2021/03/24 03:38:09;;;;;;;34.03;23.08;;;;;;;2.71;77.16;93276.47;4873481;29;20101;-84
2021/03/24 03:40:36;;;;;;;33.55;24.08;;;;;;;2.59;77.25;93285.28;4859269;29;20410;-85
2021/03/24 03:43:05;;;;;;;34.97;24.63;;;;;;;2.55;77.11;93270.38;4876823;28;20045;-85
2021/03/24 03:45:35;;;;;;;36.70;24.27;;;;;;;2.52;76.26;93256.03;4954440;28;20039;-84
2021/03/24 03:48:02;;;;;;;28.80;20.15;;;;;;;2.40;74.70;93244.22;4949709;28;20030;-84
2021/03/24 03:50:28;;;;;;;28.95;20.08;;;;;;;2.30;74.33;93234.50;4954485;28;20043;-83
2021/03/24 03:53:14;;;;;;;36.97;21.33;;;;;;;2.45;72.41;93258.06;4968185;28;20619;-85
2021/03/24 03:55:56;;;;;;;25.27;20.02;;;;;;;2.49;72.09;93274.03;4966580;28;20049;-84
2021/03/24 03:58:29;;;;;;;27.10;18.77;;;;;;;2.52;71.82;93270.91;4950492;28;20440;-85
2021/03/24 04:01:16;;;;;;;26.58;19.23;;;;;;;2.49;71.55;93280.00;4948880;28;20707;-84
2021/03/24 04:03:53;;;;;;;24.08;17.77;;;;;;;2.43;71.39;93265.38;4981727;28;20050;-84
2021/03/24 04:06:24;;;;;;;26.52;18.52;;;;;;;2.45;71.19;93283.34;4972235;28;20046;-83
2021/03/24 04:08:52;;;;;;;21.90;17.05;;;;;;;2.38;71.16;93261.94;4973172;28;20068;-82
2021/03/24 04:11:22;;;;;;;26.40;17.55;;;;;;;2.45;71.19;93284.16;4976894;28;20030;-83
2021/03/24 04:13:54;;;;;;;23.95;17.73;;;;;;;2.63;71.07;93296.00;4987694;28;20597;-84
2021/03/24 04:16:20;;;;;;;24.02;17.20;;;;;;;2.59;70.61;93284.53;4989565;28;20054;-83
2021/03/24 04:18:56;;;;;;;23.80;17.00;;;;;;;2.55;71.15;93281.59;4989617;28;20129;-83
2021/03/24 04:21:24;;;;;;;22.73;18.08;;;;;;;2.68;70.81;93295.25;4973028;28;20120;-84
2021/03/24 04:23:58;;;;;;;31.10;17.65;;;;;;;2.51;70.76;93269.31;4989533;28;20117;-84
2021/03/24 04:26:34;;;;;;;24.23;18.77;;;;;;;2.60;71.17;93296.50;4977167;28;20492;-83
2021/03/24 04:29:02;;;;;;;;;;;;;;;2.65;70.77;93298.34;4988461;28;20079;-83
2021/03/24 04:31:30;;;;;;;25.30;18.02;;;;;;;2.52;70.84;93302.19;4992508;28;20333;-83
2021/03/24 04:33:58;;;;;;;23.85;18.15;;;;;;;2.46;70.94;93280.50;4990401;28;20721;-84
2021/03/24 04:36:29;;;;;;;26.73;18.77;;;;;;;2.59;71.17;93305.38;4973119;28;20053;-83
2021/03/24 04:39:05;;;;;;;25.42;18.33;;;;;;;2.38;71.76;93282.81;4980764;28;20156;-86
2021/03/24 04:41:37;;;;;;;25.92;19.40;;;;;;;2.47;72.82;93297.72;4991902;28;20563;-82
2021/03/24 04:44:12;;;;;;;33.60;21.35;;;;;;;2.61;74.42;93308.50;4990267;28;20119;-82
2021/03/24 04:46:42;;;;;;;27.60;21.13;;;;;;;2.66;73.63;93321.59;4977592;28;20038;-84
2021/03/24 04:49:21;;;;;;;30.15;20.30;;;;;;;2.61;73.44;93309.28;4984225;28;20123;-83
2021/03/24 04:51:48;;;;;;;28.40;20.42;;;;;;;2.39;73.23;93276.56;4975708;28;20287;-84
2021/03/24 04:54:35;;;;;;;28.73;20.17;;;;;;;2.53;72.85;93299.34;4990478;28;20094;-84
2021/03/24 04:57:08;;;;;;;26.80;21.20;;;;;;;2.67;73.20;93315.34;4988416;28;20026;-85
2021/03/24 04:59:37;;;;;;;29.60;21.17;;;;;;;2.52;72.61;93286.53;4975127;28;20060;-82
2021/03/24 05:02:11;;;;;;;28.60;20.48;;;;;;;2.63;72.93;93310.88;4990488;28;20657;-83
2021/03/24 05:04:50;;;;;;;36.28;21.75;;;;;;;2.80;73.54;93329.75;4987149;28;20045;-83
2021/03/24 05:07:22;;;;;;;28.65;21.48;;;;;;;2.79;73.30;93325.56;4982578;28;20512;-84
2021/03/24 05:09:47;;;;;;;30.15;21.98;;;;;;;2.61;73.64;93311.13;4973688;28;20048;-84
2021/03/24 05:12:22;;;;;;;32.83;21.63;;;;;;;2.80;74.52;93333.16;4958057;28;20243;-82
2021/03/24 05:15:01;;;;;;;32.13;20.87;;;;;;;2.61;74.01;93298.88;4970133;28;20053;-83
2021/03/24 05:17:33;;;;;;;29.65;21.30;;;;;;;2.68;73.60;93316.91;4993744;28;20504;-84
2021/03/24 05:20:17;;;;;;;29.05;19.83;;;;;;;2.59;73.01;93308.75;4981697;28;20061;-83
2021/03/24 05:22:44;;;;;;;31.83;21.33;;;;;;;2.69;73.50;93326.28;4983620;28;20504;-83
2021/03/24 05:25:19;;;;;;;29.42;20.10;;;;;;;2.85;72.95;93346.22;4993317;28;20046;-83
2021/03/24 05:28:06;;;;;;;31.15;20.77;;;;;;;3.00;73.46;93348.94;4994351;28;20064;-83
2021/03/24 05:30:37;;;;;;;30.83;17.83;;;;;;;3.05;72.46;93346.34;4976131;28;20050;-83
2021/03/24 05:33:09;;;;;;;29.83;19.80;;;;;;;3.17;73.22;93353.22;4968280;28;20041;-84
2021/03/24 05:35:53;;;;;;;27.52;19.25;;;;;;;3.07;73.64;93342.72;4998636;28;20026;-83
2021/03/24 05:38:35;;;;;;;29.58;19.80;;;;;;;3.17;73.39;93359.22;4989258;28;20530;-83
2021/03/24 05:41:07;;;;;;;29.70;20.77;;;;;;;3.18;74.51;93370.44;4972664;28;20494;-83
2021/03/24 05:43:45;;;;;;;24.33;17.73;;;;;;;3.13;73.81;93373.03;4991493;28;20134;-82
2021/03/24 05:46:29;;;;;;;30.27;17.75;;;;;;;3.11;73.84;93370.66;4972031;28;20507;-82
2021/03/24 05:49:16;;;;;;;21.25;15.02;;;;;;;2.99;73.83;93378.69;4971679;28;20460;-83
2021/03/24 05:51:53;;;;;;;26.63;17.48;;;;;;;3.11;74.00;93382.94;4991357;28;20045;-84
2021/03/24 05:55:02;;;;;;;20.40;14.85;;;;;;;3.00;72.71;93392.53;4991378;28;20042;-84
2021/03/24 05:57:39;;;;;;;22.55;15.45;;;;;;;3.05;72.88;93406.41;4983192;28;20038;-82
2021/03/24 06:00:43;;;;;;;26.55;17.63;;;;;;;3.27;72.47;93405.50;4986311;28;20038;-83
2021/03/24 06:03:30;;;;;;;23.08;15.75;;;;;;;3.29;70.90;93408.63;4940234;28;20271;-82
2021/03/24 06:06:25;;;;;;;22.35;16.17;;;;;;;3.38;71.51;93418.34;4917549;28;20082;-81
2021/03/24 06:09:15;;;;;;;21.10;15.38;;;;;;;3.42;70.41;93418.63;4934161;28;20190;-84
2021/03/24 06:12:08;;;;;;;19.95;15.27;;;;;;;3.50;71.18;93441.66;4936222;28;20042;-83
2021/03/24 06:14:55;;;;;;;32.33;16.48;;;;;;;3.43;71.46;93441.09;4932923;28;20137;-82
2021/03/24 06:17:40;;;;;;;20.98;15.43;;;;;;;3.39;71.45;93440.81;4920920;28;20101;-83
2021/03/24 06:20:44;;;;;;;20.10;15.83;;;;;;;3.49;71.70;93450.53;4929157;28;20070;-84
2021/03/24 06:23:18;;;;;;;28.10;20.20;;;;;;;3.56;71.24;93445.09;4918801;28;20500;-83
2021/03/24 06:25:56;;;;;;;28.27;18.13;;;;;;;3.67;70.52;93447.47;4923993;28;20043;-85
2021/03/24 06:28:36;;;;;;;26.17;18.05;;;;;;;3.69;70.39;93466.31;4918617;28;20343;-83
2021/03/24 06:31:19;;;;;;;16.95;13.23;;;;;;;3.43;70.26;93472.44;4931693;28;20047;-82
2021/03/24 06:34:25;;;;;;;23.45;16.08;;;;;;;3.55;70.95;93485.31;4957623;28;20383;-84
2021/03/24 06:36:54;;;;;;;12.60;8.02;;;;;;;3.59;69.24;93481.94;4992513;28;20041;-81
2021/03/24 06:39:34;;;;;;;12.98;9.77;;;;;;;3.46;69.94;93485.00;4987202;28;20396;-84
2021/03/24 06:42:02;;;;;;;15.15;9.40;;;;;;;3.62;70.39;93497.09;4991324;28;20113;-82
2021/03/24 06:45:04;;;;;;;16.45;9.20;;;;;;;3.59;67.80;93494.22;4995875;28;20065;-83
2021/03/24 06:47:42;;;;;;;8.90;6.35;;;;;;;3.75;65.92;93503.72;4994531;28;20153;-83
2021/03/24 06:50:10;;;;;;;7.13;4.47;;;;;;;3.55;65.55;93514.03;4994886;28;20030;-83
2021/03/24 06:52:58;;;;;;;7.05;4.03;;;;;;;3.36;66.43;93503.22;4969917;28;20526;-83
2021/03/24 06:55:54;;;;;;;6.40;4.35;;;;;;;3.49;64.65;93521.06;4993827;28;20052;-84
2021/03/24 06:59:01;;;;;;;6.22;3.28;;;;;;;3.40;61.66;93519.94;4970624;28;20057;-84
2021/03/24 07:01:51;;;;;;;6.80;2.92;;;;;;;3.53;60.14;93534.41;4987820;28;20037;-84
2021/03/24 07:04:52;;;;;;;4.18;2.80;;;;;;;3.55;59.16;93545.41;4984943;28;20041;-84
2021/03/24 07:07:49;;;;;;;4.65;3.88;;;;;;;3.36;57.38;93561.47;4990164;28;20651;-83
2021/03/24 07:10:28;;;;;;;2.88;2.53;;;;;;;3.21;54.72;93555.31;4970985;28;20334;-83
2021/03/24 07:13:24;;;;;;;3.13;2.72;;;;;;;3.33;54.64;93566.38;4991308;28;20049;-83
2021/03/24 07:15:59;;;;;;;4.68;3.33;;;;;;;3.40;53.46;93575.59;4990393;28;20448;-82
2021/03/24 07:18:33;;;;;;;6.82;4.40;;;;;;;3.54;53.17;93580.38;4968256;28;20151;-83
2021/03/24 07:21:56;;;;;;;7.75;4.68;;;;;;;3.58;52.64;93584.88;4992432;28;20034;-83
2021/03/24 07:24:34;;;;;;;8.82;5.03;;;;;;;3.46;52.54;93581.66;4915175;28;20472;-84
2021/03/24 07:27:38;;;;;;;4.97;3.10;;;;;;;3.30;52.79;93577.34;4958257;28;20046;-83
2021/03/24 07:30:19;;;;;;;7.10;3.97;;;;;;;3.59;53.21;93591.66;4964585;28;20023;-83
2021/03/24 07:33:00;;;;;;;6.07;4.07;;;;;;;3.43;53.01;93584.75;4992317;28;20214;-84
2021/03/24 07:35:34;;;;;;;4.28;2.50;;;;;;;3.31;52.45;93603.22;4993671;28;20041;-83
2021/03/24 07:38:09;;;;;;;4.13;2.72;;;;;;;3.22;52.94;93606.53;4992126;28;20065;-84
2021/03/24 07:40:59;;;;;;;2.95;2.40;;;;;;;3.21;52.31;93615.38;4965263;28;20050;-84
2021/03/24 07:43:53;;;;;;;5.10;3.38;;;;;;;2.95;52.98;93630.78;4989251;28;20041;-84
2021/03/24 07:46:39;;;;;;;3.90;2.58;;;;;;;2.91;53.62;93614.06;4991706;28;20518;-83
2021/03/24 07:49:42;;;;;;;3.28;2.63;;;;;;;2.85;52.85;93632.50;4992775;28;20069;-82
2021/03/24 07:52:07;;;;;;;3.60;3.30;;;;;;;2.73;52.18;93640.47;4990459;28;20034;-83
2021/03/24 07:55:01;;;;;;;2.85;2.20;;;;;;;2.53;52.91;93648.84;4973262;28;20511;-83
2021/03/24 07:57:39;;;;;;;3.22;2.75;;;;;;;2.34;53.21;93625.91;4984365;28;20049;-83
2021/03/24 08:00:23;;;;;;;3.00;2.72;;;;;;;2.26;53.96;93645.34;4984655;28;20025;-83
2021/03/24 08:03:00;;;;;;;2.88;2.38;;;;;;;2.20;55.32;93629.91;4980874;28;20046;-83
2021/03/24 08:05:43;;;;;;;2.13;2.03;;;;;;;1.74;55.03;93656.09;4992553;28;20049;-83
2021/03/24 08:08:30;;;;;;;2.75;2.40;;;;;;;1.41;55.71;93616.25;4944386;28;20081;-82
2021/03/24 08:11:20;;;;;;;2.47;2.10;;;;;;;1.74;55.78;93663.13;4987332;28;20496;-84
2021/03/24 08:14:10;;;;;;;2.38;2.10;;;;;;;1.93;54.85;93664.44;4967424;28;20053;-83
2021/03/24 08:16:58;;;;;;;2.28;2.08;;;;;;;2.17;54.92;93657.22;4962553;28;20128;-84
2021/03/24 08:19:46;;;;;;;2.60;2.40;;;;;;;2.34;53.06;93659.81;4989831;28;20564;-83
2021/03/24 08:22:30;;;;;;;2.83;2.28;;;;;;;2.30;53.24;93661.31;4986761;28;20744;-83
2021/03/24 08:25:37;;;;;;;3.15;2.67;;;;;;;1.99;54.37;93671.31;4943230;28;20042;-83
2021/03/24 08:28:29;;;;;;;2.75;2.50;;;;;;;1.75;53.85;93677.72;4908950;29;20523;-83
2021/03/24 08:31:33;;;;;;;3.33;2.70;;;;;;;1.81;53.22;93623.91;4911068;28;20145;-84
2021/03/24 08:34:31;;;;;;;3.17;2.88;;;;;;;2.64;53.46;93670.59;4853260;29;20455;-84
2021/03/24 08:37:06;;;;;;;2.95;2.70;;;;;;;2.80;52.64;93661.16;4856495;29;20132;-84
2021/03/24 08:39:39;;;;;;;4.07;3.38;;;;;;;2.77;51.23;93615.47;4816187;29;20180;-83
2021/03/24 08:42:17;;;;;;;2.75;2.55;;;;;;;3.06;51.74;93670.84;4817191;29;20036;-84
2021/03/24 08:45:02;;;;;;;3.20;2.83;;;;;;;2.65;51.15;93603.56;4843381;29;20039;-84
2021/03/24 08:47:31;;;;;;;;;;;;;;;3.21;51.22;93678.06;4798717;29;20764;-84
2021/03/24 08:50:20;;;;;;;2.60;2.40;;;;;;;2.91;50.51;93602.81;4835188;29;20387;-84
2021/03/24 08:53:08;;;;;;;2.80;2.60;;;;;;;3.18;50.79;93683.75;4828511;29;20052;-83
2021/03/24 08:55:36;;;;;;;3.53;2.88;;;;;;;3.30;50.56;93666.13;4850485;29;20244;-84
2021/03/24 08:58:25;;;;;;;4.20;2.92;;;;;;;3.31;50.03;93654.66;4816844;29;20034;-85
2021/03/24 09:01:28;;;;;;;6.28;4.55;;;;;;;3.79;49.23;93664.22;4760443;29;20047;-83
2021/03/24 09:04:19;;;;;;;4.13;3.03;;;;;;;3.67;48.40;93656.53;4771290;29;20051;-84
2021/03/24 09:07:15;;;;;;;3.15;2.85;;;;;;;3.87;48.46;93634.97;4790749;29;20165;-84
2021/03/24 09:10:05;;;;;;;5.03;3.22;;;;;;;4.15;48.07;93655.59;4800030;29;20160;-83
2021/03/24 09:12:54;;;;;;;3.78;2.97;;;;;;;4.35;48.79;93658.31;4875279;29;20570;-84
2021/03/24 09:15:25;;;;;;;4.75;3.70;;;;;;;4.24;48.57;93656.69;4874945;29;20128;-84
2021/03/24 09:18:20;;;;;;;3.47;3.13;;;;;;;4.33;48.53;93665.63;4877677;29;20451;-83
2021/03/24 09:21:10;;;;;;;12.13;9.27;;;;;;;3.50;51.14;93668.94;4877451;29;20024;-83
2021/03/24 09:23:53;;;;;;;15.52;6.63;;;;;;;3.49;51.62;93680.41;4859170;29;20070;-83
2021/03/24 09:26:56;;;;;;;6.90;4.82;;;;;;;3.52;52.06;93682.53;4877716;29;20103;-83
2021/03/24 09:29:30;;;;;;;7.32;5.22;;;;;;;3.53;52.99;93685.91;4878873;29;20680;-84
2021/03/24 09:32:12;;;;;;;6.57;5.30;;;;;;;3.33;51.83;93655.97;4875608;29;20072;-84
2021/03/24 09:34:52;;;;;;;4.60;3.13;;;;;;;3.61;49.37;93686.28;4876179;29;20032;-83
2021/03/24 09:37:29;;;;;;;6.15;3.30;;;;;;;3.61;48.75;93690.72;4898003;28;20057;-82
2021/03/24 09:39:58;;;;;;;4.88;4.13;;;;;;;3.75;48.02;93679.59;4974354;28;20095;-83
2021/03/24 09:42:32;;;;;;;4.22;3.03;;;;;;;3.74;47.18;93695.53;4976596;28;20042;-83
2021/03/24 09:45:22;;;;;;;5.40;2.83;;;;;;;3.60;45.89;93697.75;4966936;28;20057;-83
2021/03/24 09:48:03;;;;;;;2.67;2.28;;;;;;;3.71;45.90;93707.28;4988230;28;20455;-83
2021/03/24 09:50:34;;;;;;;7.60;4.47;;;;;;;3.68;46.41;93693.91;4990097;28;20034;-82
2021/03/24 09:53:20;;;;;;;6.68;4.65;;;;;;;3.80;46.23;93707.63;4989785;28;20101;-83
2021/03/24 09:55:47;;;;;;;3.65;2.85;;;;;;;3.45;46.08;93702.84;4975094;28;20168;-81
2021/03/24 09:58:13;;;;;;;4.70;3.67;;;;;;;3.27;46.32;93721.47;4988061;28;20034;-82
2021/03/24 10:00:53;;;;;;;5.70;3.53;;;;;;;2.88;47.79;93716.31;4988989;28;20049;-80
2021/03/24 10:03:59;;;;;;;6.88;4.32;;;;;;;3.00;48.19;93729.25;4988012;28;20049;-81
2021/03/24 10:06:48;;;;;;;9.13;5.95;;;;;;;2.98;48.10;93726.88;4976762;28;20064;-83
2021/03/24 10:09:35;;;;;;;6.70;2.70;;;;;;;2.96;47.11;93728.16;4992390;28;20042;-82
2021/03/24 10:12:09;;;;;;;5.20;3.50;;;;;;;2.97;47.14;93729.75;4992521;28;20053;-83
2021/03/24 10:15:02;;;;;;;6.40;4.10;;;;;;;2.88;47.87;93729.34;4974916;28;20562;-82
2021/03/24 10:17:34;;;;;;;6.35;3.25;;;;;;;2.98;47.29;93726.88;4990478;28;20578;-84
2021/03/24 10:20:15;;;;;;;4.65;3.60;;;;;;;3.07;47.64;93721.25;4986877;28;20762;-82
2021/03/24 10:22:53;;;;;;;4.60;2.75;;;;;;;3.22;48.35;93739.69;4987412;28;20132;-84
2021/03/24 10:25:33;;;;;;;5.72;2.95;;;;;;;3.29;48.91;93738.47;4963443;28;20052;-83
2021/03/24 10:28:06;;;;;;;4.10;2.85;;;;;;;3.30;47.86;93719.16;4979182;28;20425;-83
2021/03/24 10:30:40;;;;;;;5.13;3.58;;;;;;;3.31;49.41;93691.22;4989963;28;20092;-84
2021/03/24 10:33:31;;;;;;;8.48;5.90;;;;;;;3.80;47.45;93734.53;4990589;28;20032;-83
2021/03/24 10:36:15;;;;;;;3.20;2.90;;;;;;;3.93;45.80;93728.91;4980964;28;20061;-84
2021/03/24 10:38:54;;;;;;;5.88;2.60;;;;;;;4.11;46.60;93732.16;4986964;28;20362;-83
2021/03/24 10:41:44;;;;;;;5.93;3.50;;;;;;;4.35;45.93;93728.16;4988601;28;20731;-83
2021/03/24 10:44:22;;;;;;;10.20;3.75;;;;;;;4.66;45.43;93737.00;4993355;28;20143;-83
2021/03/24 10:47:18;;;;;;;4.47;2.97;;;;;;;4.14;45.55;93734.28;4971084;28;20184;-83
2021/03/24 10:50:10;;;;;;;7.63;4.63;;;;;;;3.83;43.93;93744.50;4978388;28;20034;-83
2021/03/24 10:53:01;;;;;;;8.10;4.65;;;;;;;4.05;42.54;93730.56;4907379;28;21125;-83
2021/03/24 10:55:32;;;;;;;3.53;2.45;;;;;;;4.23;40.75;93727.56;4909668;28;21226;-82
2021/03/24 10:58:36;;;;;;;3.72;2.90;;;;;;;4.23;40.24;93732.78;4911495;29;20519;-82
2021/03/24 11:01:26;;;;;;;4.20;2.92;;;;;;;4.10;40.94;93725.38;4909636;28;20028;-81
2021/03/24 11:04:04;;;;;;;6.07;2.45;;;;;;;4.47;40.02;93728.78;4915517;28;20050;-81
2021/03/24 11:06:50;;;;;;;4.43;2.33;;;;;;;5.02;40.97;93728.28;4908627;28;20601;-82
2021/03/24 11:09:22;;;;;;;6.72;2.60;;;;;;;5.40;39.34;93721.06;4912573;28;20536;-83
2021/03/24 11:12:05;;;;;;;5.80;2.90;;;;;;;5.64;38.60;93737.91;4903890;28;20092;-84
2021/03/24 11:14:37;;;;;;;4.43;3.95;;;;;;;5.44;37.84;93727.38;4910414;29;20572;-84
2021/03/24 11:17:17;;;;;;;4.72;3.10;;;;;;;5.90;38.65;93696.81;4888647;28;21040;-84
2021/03/24 11:19:47;;;;;;;4.78;3.33;;;;;;;5.82;36.76;93697.28;4912288;28;20047;-83
2021/03/24 11:22:50;;;;;;;4.50;3.53;;;;;;;5.96;37.46;93722.00;4894940;29;20094;-83
2021/03/24 11:25:33;;;;;;;2.58;2.10;;;;;;;6.30;36.88;93719.66;4897356;29;20039;-83
2021/03/24 11:28:23;;;;;;;3.95;3.20;;;;;;;6.34;34.51;93718.84;4912893;29;20056;-83
2021/03/24 11:31:07;;;;;;;4.03;2.10;;;;;;;5.54;34.79;93669.75;4980393;28;20045;-83
2021/03/24 11:33:48;;;;;;;3.63;1.90;;;;;;;5.94;34.55;93700.50;4989317;28;20053;-83
2021/03/24 11:36:25;;;;;;;2.35;1.65;;;;;;;6.33;34.67;93709.41;4990155;28;20531;-82
2021/03/24 11:39:02;;;;;;;5.95;2.47;;;;;;;6.56;34.32;93712.50;4963173;28;20491;-83
2021/03/24 11:41:41;;;;;;;6.97;4.03;;;;;;;6.76;32.85;93702.75;4993293;28;20061;-84
2021/03/24 11:44:14;;;;;;;3.20;2.42;;;;;;;7.14;34.95;93685.53;4992563;28;20116;-82
2021/03/24 11:46:43;;;;;;;10.32;5.95;;;;;;;7.08;33.81;93702.41;4988756;28;20038;-83
2021/03/24 11:49:52;;;;;;;8.48;2.67;;;;;;;7.32;32.39;93700.72;4957541;28;20088;-83
2021/03/24 11:52:22;;;;;;;6.32;2.17;;;;;;;7.35;32.89;93694.91;4978728;28;20038;-83
2021/03/24 11:55:06;;;;;;;5.75;2.47;;;;;;;7.34;32.01;93701.22;4992012;28;20041;-82
2021/03/24 11:58:21;;;;;;;5.45;2.30;;;;;;;7.19;32.75;93698.66;4992235;28;20038;-83
2021/03/24 12:01:02;;;;;;;8.50;4.32;;;;;;;6.83;33.59;93679.63;4856290;29;20072;-84
2021/03/24 12:03:47;;;;;;;8.40;2.92;;;;;;;6.39;35.24;93703.09;4831132;29;20125;-83
2021/03/24 12:06:39;;;;;;;4.82;2.65;;;;;;;6.19;34.76;93676.09;4843317;29;20225;-83
2021/03/24 12:09:26;;;;;;;9.10;4.43;;;;;;;6.29;33.41;93694.44;4853138;29;20041;-82
2021/03/24 12:12:12;;;;;;;3.80;2.53;;;;;;;6.18;34.45;93687.63;4839717;29;20036;-83
2021/03/24 12:14:41;;;;;;;5.15;3.28;;;;;;;5.95;34.50;93653.03;4855290;29;20031;-83
2021/03/24 12:17:42;;;;;;;8.68;3.28;;;;;;;6.04;33.18;93685.53;4845004;29;20063;-83
2021/03/24 12:20:12;;;;;;;4.05;2.40;;;;;;;5.47;33.65;93690.19;4789335;29;20053;-82
2021/03/24 12:22:39;;;;;;;5.40;2.40;;;;;;;4.95;34.61;93630.84;4793581;29;20046;-83
2021/03/24 12:25:28;;;;;;;5.20;2.42;;;;;;;5.34;33.87;93678.34;4771411;29;20236;-82
2021/03/24 12:28:02;;;;;;;4.70;2.17;;;;;;;4.94;34.54;93637.09;4790068;29;20921;-82